Wetterdaten: Woche 29.06.15 - 05.07.15 (KW27)
Datum Zeit Temp. A. Feuchte A. Luftdruck Regen Wind Richtung Sonnenschein ET UV Solar Taupunkt Windchill Windben
29.06.2015 00:00 13,7 C 82 % 1020,7 hPa 0,0 l/m 0,2 km/h (0 Bft) N 0,00 h 0,025 mm 0,0 UV-I 0 W/m 10,6 C 13,7 C 1,0 km/h (0 Bft)
29.06.2015 01:00 13,5 C 84 % 1020,8 hPa 0,0 l/m 0,0 km/h (0 Bft) N 0,00 h 0,025 mm 0,0 UV-I 0 W/m 10,8 C 13,5 C 0,0 km/h (0 Bft)
29.06.2015 02:00 12,9 C 85 % 1020,6 hPa 0,0 l/m 0,0 km/h (0 Bft) N 0,00 h 0,000 mm 0,0 UV-I 0 W/m 10,5 C 12,9 C 0,1 km/h (0 Bft)
29.06.2015 03:00 13,1 C 86 % 1020,8 hPa 0,0 l/m 0,0 km/h (0 Bft) N 0,00 h 0,000 mm 0,0 UV-I 0 W/m 10,9 C 13,1 C 0,0 km/h (0 Bft)
29.06.2015 04:00 13,1 C 88 % 1020,8 hPa 0,0 l/m 0,0 km/h (0 Bft) N 0,00 h 0,000 mm 0,0 UV-I 0 W/m 11,1 C 13,1 C 0,1 km/h (0 Bft)
29.06.2015 05:00 12,5 C 91 % 1020,6 hPa 0,0 l/m 0,0 km/h (0 Bft) N 0,00 h 0,000 mm 0,0 UV-I 11 W/m 11,1 C 12,5 C 0,1 km/h (0 Bft)
29.06.2015 06:00 12,9 C 91 % 1021,0 hPa 0,0 l/m 0,0 km/h (0 Bft) N 0,00 h 0,000 mm 0,0 UV-I 20 W/m 11,5 C 12,9 C 0,3 km/h (0 Bft)
29.06.2015 07:00 13,2 C 91 % 1021,3 hPa 0,6 l/m 0,0 km/h (0 Bft) N 0,00 h 0,000 mm 0,0 UV-I 39 W/m 11,9 C 13,2 C 0,0 km/h (0 Bft)
29.06.2015 08:00 13,7 C 93 % 1021,4 hPa 0,2 l/m 0,1 km/h (0 Bft) N 0,98 h 0,025 mm 0,8 UV-I 137 W/m 12,5 C 13,7 C 0,5 km/h (0 Bft)
29.06.2015 09:00 16,0 C 86 % 1021,2 hPa 0,0 l/m 0,0 km/h (0 Bft) N 1,00 h 0,076 mm 2,1 UV-I 327 W/m 13,7 C 16,0 C 0,2 km/h (0 Bft)
29.06.2015 10:00 19,2 C 71 % 1021,3 hPa 0,0 l/m 0,1 km/h (0 Bft) N 1,00 h 0,203 mm 3,5 UV-I 585 W/m 13,7 C 19,2 C 0,5 km/h (0 Bft)
29.06.2015 11:00 20,9 C 60 % 1021,1 hPa 0,0 l/m 0,7 km/h (0 Bft) N 1,00 h 0,356 mm 5,1 UV-I 707 W/m 12,9 C 20,9 C 2,5 km/h (1 Bft)
29.06.2015 12:00 22,4 C 56 % 1020,7 hPa 0,0 l/m 0,6 km/h (0 Bft) N 1,00 h 0,432 mm 5,8 UV-I 832 W/m 13,2 C 22,4 C 2,5 km/h (1 Bft)
29.06.2015 13:00 23,2 C 52 % 1020,3 hPa 0,0 l/m 1,6 km/h (1 Bft) S-SO 1,00 h 0,508 mm 5,1 UV-I 595 W/m 12,7 C 23,2 C 4,2 km/h (1 Bft)
29.06.2015 14:00 24,1 C 48 % 1019,9 hPa 0,0 l/m 2,8 km/h (1 Bft) W-SW 1,00 h 0,406 mm 5,3 UV-I 774 W/m 12,3 C 24,0 C 6,4 km/h (2 Bft)
29.06.2015 15:00 24,6 C 45 % 1019,5 hPa 0,0 l/m 4,0 km/h (1 Bft) W-SW 1,00 h 0,508 mm 3,9 UV-I 600 W/m 11,7 C 24,4 C 7,8 km/h (2 Bft)
29.06.2015 16:00 25,1 C 43 % 1019,3 hPa 0,0 l/m 3,8 km/h (1 Bft) W 1,00 h 0,406 mm 3,4 UV-I 639 W/m 11,7 C 25,0 C 8,2 km/h (2 Bft)
29.06.2015 17:00 24,8 C 43 % 1019,0 hPa 0,0 l/m 5,2 km/h (1 Bft) W-SW 1,00 h 0,432 mm 1,6 UV-I 381 W/m 11,4 C 24,5 C 9,3 km/h (2 Bft)
29.06.2015 18:00 23,6 C 48 % 1019,1 hPa 0,0 l/m 1,8 km/h (1 Bft) N 1,00 h 0,279 mm 0,7 UV-I 148 W/m 11,9 C 23,6 C 4,8 km/h (1 Bft)
29.06.2015 19:00 22,7 C 49 % 1019,1 hPa 0,0 l/m 1,4 km/h (1 Bft) N 0,25 h 0,127 mm 0,6 UV-I 43 W/m 11,4 C 22,7 C 3,1 km/h (1 Bft)
29.06.2015 20:00 20,3 C 65 % 1019,6 hPa 0,2 l/m 3,9 km/h (1 Bft) N 0,00 h 0,051 mm 0,0 UV-I 13 W/m 13,2 C 20,0 C 7,6 km/h (2 Bft)
29.06.2015 21:00 17,6 C 83 % 1020,0 hPa 0,0 l/m 0,0 km/h (0 Bft) N 0,00 h 0,025 mm 0,0 UV-I 9 W/m 14,6 C 17,6 C 0,0 km/h (0 Bft)
29.06.2015 22:00 17,3 C 86 % 1020,3 hPa 0,0 l/m 0,0 km/h (0 Bft) N 0,00 h 0,000 mm 0,0 UV-I 0 W/m 14,9 C 17,3 C 0,0 km/h (0 Bft)
29.06.2015 23:00 16,3 C 89 % 1020,5 hPa 0,0 l/m 0,0 km/h (0 Bft) N 0,00 h 0,000 mm 0,0 UV-I 0 W/m 14,5 C 16,3 C 0,0 km/h (0 Bft)
30.06.2015 00:00 15,3 C 91 % 1020,4 hPa 0,0 l/m 0,0 km/h (0 Bft) N 0,00 h 0,000 mm 0,0 UV-I 0 W/m 13,9 C 15,3 C 0,0 km/h (0 Bft)
30.06.2015 01:00 14,3 C 92 % 1020,3 hPa 0,0 l/m 0,0 km/h (0 Bft) N 0,00 h 0,000 mm 0,0 UV-I 0 W/m 13,1 C 14,3 C 0,0 km/h (0 Bft)
30.06.2015 02:00 13,4 C 94 % 1020,0 hPa 0,0 l/m 0,0 km/h (0 Bft) N 0,00 h 0,000 mm 0,0 UV-I 0 W/m 12,4 C 13,4 C 0,0 km/h (0 Bft)
30.06.2015 03:00 12,6 C 95 % 1019,8 hPa 0,0 l/m 0,0 km/h (0 Bft) N 0,00 h 0,000 mm 0,0 UV-I 0 W/m 11,8 C 12,6 C 0,0 km/h (0 Bft)
30.06.2015 04:00 12,1 C 95 % 1019,9 hPa 0,0 l/m 0,0 km/h (0 Bft) N 0,00 h 0,000 mm 0,0 UV-I 0 W/m 11,3 C 12,1 C 0,0 km/h (0 Bft)
30.06.2015 05:00 11,7 C 95 % 1020,2 hPa 0,0 l/m 0,0 km/h (0 Bft) N 0,00 h 0,000 mm 0,0 UV-I 17 W/m 10,9 C 11,7 C 0,0 km/h (0 Bft)
30.06.2015 06:00 12,3 C 95 % 1020,1 hPa 0,0 l/m 0,0 km/h (0 Bft) N 0,32 h 0,000 mm 0,5 UV-I 46 W/m 11,5 C 12,3 C 0,0 km/h (0 Bft)
30.06.2015 07:00 14,5 C 91 % 1020,3 hPa 0,0 l/m 0,0 km/h (0 Bft) N 1,00 h 0,025 mm 0,7 UV-I 137 W/m 13,0 C 14,5 C 0,0 km/h (0 Bft)
30.06.2015 08:00 17,3 C 85 % 1020,4 hPa 0,0 l/m 0,0 km/h (0 Bft) N 1,00 h 0,076 mm 1,5 UV-I 391 W/m 14,8 C 17,3 C 0,1 km/h (0 Bft)
30.06.2015 09:00 20,1 C 74 % 1020,5 hPa 0,0 l/m 0,7 km/h (0 Bft) N 1,00 h 0,203 mm 2,7 UV-I 497 W/m 15,3 C 20,1 C 1,9 km/h (1 Bft)
30.06.2015 10:00 22,6 C 65 % 1020,4 hPa 0,0 l/m 1,5 km/h (1 Bft) N 1,00 h 0,305 mm 4,0 UV-I 710 W/m 15,6 C 22,6 C 3,6 km/h (1 Bft)
30.06.2015 11:00 24,5 C 56 % 1020,1 hPa 0,0 l/m 3,3 km/h (1 Bft) W-NW 1,00 h 0,432 mm 5,6 UV-I 796 W/m 15,1 C 24,4 C 6,8 km/h (2 Bft)
30.06.2015 12:00 25,9 C 47 % 1020,0 hPa 0,0 l/m 3,0 km/h (1 Bft) N 1,00 h 0,508 mm 6,7 UV-I 889 W/m 13,5 C 25,8 C 6,3 km/h (2 Bft)
30.06.2015 13:00 26,6 C 44 % 1019,7 hPa 0,0 l/m 2,3 km/h (1 Bft) N 1,00 h 0,584 mm 6,8 UV-I 892 W/m 13,4 C 26,5 C 5,3 km/h (1 Bft)
30.06.2015 14:00 26,9 C 43 % 1019,4 hPa 0,0 l/m 2,5 km/h (1 Bft) NW 1,00 h 0,584 mm 6,0 UV-I 839 W/m 13,0 C 26,8 C 5,7 km/h (2 Bft)
30.06.2015 15:00 27,1 C 43 % 1019,1 hPa 0,0 l/m 2,5 km/h (1 Bft) W-NW 1,00 h 0,559 mm 4,7 UV-I 697 W/m 13,3 C 27,0 C 5,5 km/h (2 Bft)
30.06.2015 16:00 27,1 C 42 % 1018,8 hPa 0,0 l/m 3,0 km/h (1 Bft) W-NW 1,00 h 0,483 mm 3,3 UV-I 606 W/m 13,2 C 27,1 C 7,0 km/h (2 Bft)
30.06.2015 17:00 26,5 C 42 % 1018,5 hPa 0,0 l/m 3,0 km/h (1 Bft) NW 1,00 h 0,406 mm 2,0 UV-I 392 W/m 12,4 C 26,5 C 7,2 km/h (2 Bft)
30.06.2015 18:00 25,3 C 43 % 1018,4 hPa 0,0 l/m 6,0 km/h (2 Bft) N 1,00 h 0,279 mm 1,0 UV-I 65 W/m 11,9 C 25,1 C 11,1 km/h (2 Bft)
30.06.2015 19:00 23,7 C 48 % 1018,6 hPa 0,0 l/m 5,7 km/h (2 Bft) N-NO 0,03 h 0,102 mm 0,0 UV-I 39 W/m 11,9 C 23,4 C 11,5 km/h (2 Bft)
30.06.2015 20:00 22,3 C 52 % 1019,0 hPa 0,0 l/m 5,6 km/h (2 Bft) N-NO 0,00 h 0,076 mm 0,0 UV-I 20 W/m 12,0 C 22,0 C 10,8 km/h (2 Bft)
30.06.2015 21:00 20,6 C 63 % 1019,6 hPa 0,0 l/m 1,4 km/h (1 Bft) N-NO 0,00 h 0,051 mm 0,0 UV-I 7 W/m 13,3 C 20,6 C 4,2 km/h (1 Bft)
30.06.2015 22:00 19,2 C 70 % 1020,3 hPa 0,0 l/m 0,0 km/h (0 Bft) N 0,00 h 0,000 mm 0,0 UV-I 0 W/m 13,5 C 19,2 C 0,0 km/h (0 Bft)
30.06.2015 23:00 18,0 C 75 % 1020,4 hPa 0,0 l/m 0,0 km/h (0 Bft) N 0,00 h 0,000 mm 0,0 UV-I 0 W/m 13,5 C 18,0 C 0,1 km/h (0 Bft)
01.07.2015 00:00 16,8 C 78 % 1020,3 hPa 0,0 l/m 0,0 km/h (0 Bft) N 0,00 h 0,025 mm 0,0 UV-I 0 W/m 13,0 C 16,8 C 0,0 km/h (0 Bft)
01.07.2015 01:00 15,9 C 81 % 1020,4 hPa 0,0 l/m 0,0 km/h (0 Bft) N 0,00 h 0,025 mm 0,0 UV-I 0 W/m 12,6 C 15,9 C 0,0 km/h (0 Bft)
01.07.2015 02:00 15,1 C 83 % 1020,3 hPa 0,0 l/m 0,0 km/h (0 Bft) N 0,00 h 0,025 mm 0,0 UV-I 0 W/m 12,2 C 15,1 C 0,1 km/h (0 Bft)
01.07.2015 03:00 14,6 C 85 % 1020,2 hPa 0,0 l/m 0,0 km/h (0 Bft) N 0,00 h 0,025 mm 0,0 UV-I 0 W/m 12,0 C 14,6 C 0,4 km/h (0 Bft)
01.07.2015 04:00 14,1 C 85 % 1020,1 hPa 0,0 l/m 0,0 km/h (0 Bft) N 0,00 h 0,000 mm 0,0 UV-I 0 W/m 11,7 C 14,1 C 0,0 km/h (0 Bft)
01.07.2015 05:00 13,3 C 88 % 1020,3 hPa 0,0 l/m 0,0 km/h (0 Bft) N 0,00 h 0,000 mm 0,0 UV-I 11 W/m 11,4 C 13,3 C 0,0 km/h (0 Bft)
01.07.2015 06:00 13,7 C 89 % 1020,4 hPa 0,0 l/m 0,0 km/h (0 Bft) N 0,00 h 0,000 mm 0,0 UV-I 26 W/m 11,9 C 13,7 C 0,1 km/h (0 Bft)
01.07.2015 07:00 17,2 C 78 % 1020,6 hPa 0,0 l/m 0,7 km/h (0 Bft) N 0,53 h 0,025 mm 1,0 UV-I 183 W/m 13,3 C 17,2 C 3,1 km/h (1 Bft)
01.07.2015 08:00 20,7 C 67 % 1020,6 hPa 0,0 l/m 1,9 km/h (1 Bft) O-NO 1,00 h 0,102 mm 1,7 UV-I 451 W/m 14,4 C 20,7 C 5,6 km/h (2 Bft)
01.07.2015 09:00 22,9 C 59 % 1020,6 hPa 0,0 l/m 2,2 km/h (1 Bft) O-NO 1,00 h 0,279 mm 3,0 UV-I 603 W/m 14,4 C 22,9 C 5,7 km/h (2 Bft)
01.07.2015 10:00 24,0 C 55 % 1020,6 hPa 0,0 l/m 6,0 km/h (2 Bft) SO 1,00 h 0,381 mm 4,2 UV-I 729 W/m 14,3 C 23,8 C 10,8 km/h (2 Bft)
01.07.2015 11:00 25,4 C 53 % 1020,4 hPa 0,0 l/m 3,0 km/h (1 Bft) SO 1,00 h 0,483 mm 5,7 UV-I 820 W/m 14,9 C 25,3 C 7,4 km/h (2 Bft)
01.07.2015 12:00 26,4 C 48 % 1020,2 hPa 0,0 l/m 3,7 km/h (1 Bft) O-SO 1,00 h 0,533 mm 6,5 UV-I 863 W/m 14,6 C 26,4 C 8,4 km/h (2 Bft)
01.07.2015 13:00 27,3 C 44 % 1020,0 hPa 0,0 l/m 2,9 km/h (1 Bft) SO 1,00 h 0,584 mm 6,7 UV-I 873 W/m 14,0 C 27,3 C 6,8 km/h (2 Bft)
01.07.2015 14:00 28,0 C 44 % 1019,6 hPa 0,0 l/m 2,1 km/h (1 Bft) SO 1,00 h 0,584 mm 6,1 UV-I 840 W/m 14,5 C 28,0 C 5,5 km/h (2 Bft)
01.07.2015 15:00 28,5 C 44 % 1019,2 hPa 0,0 l/m 2,0 km/h (1 Bft) NO 1,00 h 0,559 mm 4,9 UV-I 747 W/m 14,9 C 28,5 C 5,6 km/h (2 Bft)
01.07.2015 16:00 28,5 C 42 % 1019,1 hPa 0,0 l/m 2,3 km/h (1 Bft) O-SO 1,00 h 0,508 mm 3,5 UV-I 639 W/m 14,3 C 28,5 C 5,3 km/h (1 Bft)
01.07.2015 17:00 28,0 C 42 % 1018,9 hPa 0,0 l/m 2,3 km/h (1 Bft) SO 1,00 h 0,457 mm 2,1 UV-I 387 W/m 13,7 C 28,0 C 5,2 km/h (1 Bft)
01.07.2015 18:00 27,2 C 42 % 1018,8 hPa 0,0 l/m 1,5 km/h (1 Bft) O-SO 0,88 h 0,279 mm 1,1 UV-I 57 W/m 13,3 C 27,2 C 4,3 km/h (1 Bft)
01.07.2015 19:00 26,6 C 44 % 1018,8 hPa 0,0 l/m 1,0 km/h (0 Bft) O-SO 0,00 h 0,076 mm 0,0 UV-I 37 W/m 13,3 C 26,6 C 3,7 km/h (1 Bft)
01.07.2015 20:00 25,1 C 50 % 1018,9 hPa 0,0 l/m 0,9 km/h (0 Bft) N 0,00 h 0,051 mm 0,0 UV-I 19 W/m 13,9 C 25,1 C 2,7 km/h (1 Bft)
01.07.2015 21:00 22,8 C 59 % 1019,4 hPa 0,0 l/m 2,7 km/h (1 Bft) O-NO 0,00 h 0,025 mm 0,0 UV-I 7 W/m 14,4 C 22,8 C 6,8 km/h (2 Bft)
01.07.2015 22:00 21,2 C 65 % 1020,0 hPa 0,0 l/m 1,0 km/h (0 Bft) O-NO 0,00 h 0,025 mm 0,0 UV-I 0 W/m 14,3 C 21,2 C 4,3 km/h (1 Bft)
01.07.2015 23:00 20,0 C 67 % 1020,5 hPa 0,0 l/m 0,7 km/h (0 Bft) N 0,00 h 0,025 mm 0,0 UV-I 0 W/m 13,7 C 20,0 C 3,0 km/h (1 Bft)
02.07.2015 00:00 19,4 C 67 % 1020,7 hPa 0,0 l/m 0,7 km/h (0 Bft) N 0,00 h 0,025 mm 0,0 UV-I 0 W/m 13,2 C 19,4 C 2,8 km/h (1 Bft)
02.07.2015 01:00 18,8 C 68 % 1020,9 hPa 0,0 l/m 1,0 km/h (0 Bft) O 0,00 h 0,025 mm 0,0 UV-I 0 W/m 12,8 C 18,8 C 3,9 km/h (1 Bft)
02.07.2015 02:00 18,5 C 68 % 1020,9 hPa 0,0 l/m 1,8 km/h (1 Bft) O 0,00 h 0,025 mm 0,0 UV-I 0 W/m 12,6 C 18,5 C 5,4 km/h (2 Bft)
02.07.2015 03:00 18,0 C 70 % 1020,8 hPa 0,0 l/m 0,8 km/h (0 Bft) O-NO 0,00 h 0,025 mm 0,0 UV-I 0 W/m 12,5 C 18,0 C 3,7 km/h (1 Bft)
02.07.2015 04:00 17,5 C 72 % 1020,8 hPa 0,0 l/m 0,4 km/h (0 Bft) O-NO 0,00 h 0,000 mm 0,0 UV-I 0 W/m 12,3 C 17,5 C 2,6 km/h (1 Bft)
02.07.2015 05:00 15,9 C 80 % 1021,1 hPa 0,0 l/m 0,0 km/h (0 Bft) N 0,00 h 0,000 mm 0,0 UV-I 11 W/m 12,3 C 15,9 C 0,3 km/h (0 Bft)
02.07.2015 06:00 15,8 C 84 % 1021,5 hPa 0,0 l/m 0,0 km/h (0 Bft) N 0,00 h 0,000 mm 0,0 UV-I 26 W/m 13,1 C 15,8 C 0,0 km/h (0 Bft)
02.07.2015 07:00 18,6 C 75 % 1021,6 hPa 0,0 l/m 1,1 km/h (0 Bft) N 0,53 h 0,025 mm 1,0 UV-I 181 W/m 14,0 C 18,6 C 2,6 km/h (1 Bft)
02.07.2015 08:00 21,6 C 67 % 1021,8 hPa 0,0 l/m 3,0 km/h (1 Bft) O-NO 1,00 h 0,102 mm 1,7 UV-I 438 W/m 15,2 C 21,6 C 7,6 km/h (2 Bft)
02.07.2015 09:00 23,9 C 63 % 1021,7 hPa 0,0 l/m 2,0 km/h (1 Bft) O-NO 1,00 h 0,279 mm 2,9 UV-I 593 W/m 16,3 C 23,9 C 5,5 km/h (2 Bft)
02.07.2015 10:00 25,7 C 59 % 1021,5 hPa 0,0 l/m 1,8 km/h (1 Bft) O 1,00 h 0,381 mm 4,0 UV-I 720 W/m 17,0 C 25,7 C 5,0 km/h (1 Bft)
02.07.2015 11:00 27,0 C 52 % 1021,4 hPa 0,0 l/m 3,3 km/h (1 Bft) SO 1,00 h 0,457 mm 5,6 UV-I 810 W/m 16,4 C 27,0 C 7,9 km/h (2 Bft)
02.07.2015 12:00 28,1 C 48 % 1021,3 hPa 0,0 l/m 2,7 km/h (1 Bft) SO 1,00 h 0,559 mm 6,4 UV-I 856 W/m 16,1 C 28,1 C 6,9 km/h (2 Bft)
02.07.2015 13:00 29,2 C 45 % 1021,0 hPa 0,0 l/m 4,1 km/h (1 Bft) O-NO 1,00 h 0,584 mm 6,6 UV-I 864 W/m 16,0 C 29,2 C 8,9 km/h (2 Bft)
02.07.2015 14:00 29,5 C 42 % 1020,7 hPa 0,0 l/m 3,4 km/h (1 Bft) SO 1,00 h 0,610 mm 6,1 UV-I 832 W/m 15,2 C 29,4 C 7,8 km/h (2 Bft)
02.07.2015 15:00 29,8 C 40 % 1020,6 hPa 0,0 l/m 4,7 km/h (1 Bft) SO 1,00 h 0,584 mm 5,0 UV-I 752 W/m 14,5 C 29,7 C 10,1 km/h (2 Bft)
02.07.2015 16:00 29,8 C 40 % 1020,6 hPa 0,0 l/m 3,3 km/h (1 Bft) S-SO 1,00 h 0,559 mm 3,5 UV-I 634 W/m 14,6 C 29,7 C 6,9 km/h (2 Bft)
02.07.2015 17:00 29,4 C 41 % 1020,5 hPa 0,0 l/m 3,7 km/h (1 Bft) SO 1,00 h 0,457 mm 2,1 UV-I 387 W/m 14,6 C 29,4 C 7,2 km/h (2 Bft)
02.07.2015 18:00 28,9 C 41 % 1020,4 hPa 0,0 l/m 4,0 km/h (1 Bft) SO 0,80 h 0,305 mm 1,1 UV-I 55 W/m 14,4 C 28,9 C 8,1 km/h (2 Bft)
02.07.2015 19:00 28,3 C 44 % 1020,4 hPa 0,0 l/m 1,5 km/h (1 Bft) SO 0,00 h 0,076 mm 0,0 UV-I 36 W/m 14,7 C 28,3 C 3,7 km/h (1 Bft)
02.07.2015 20:00 27,0 C 49 % 1020,6 hPa 0,0 l/m 0,1 km/h (0 Bft) N 0,00 h 0,051 mm 0,0 UV-I 19 W/m 15,3 C 27,0 C 0,4 km/h (0 Bft)
02.07.2015 21:00 24,6 C 55 % 1021,2 hPa 0,0 l/m 1,6 km/h (1 Bft) O-NO 0,00 h 0,025 mm 0,0 UV-I 7 W/m 15,1 C 24,6 C 5,1 km/h (1 Bft)
02.07.2015 22:00 22,8 C 61 % 1021,9 hPa 0,0 l/m 0,0 km/h (0 Bft) N 0,00 h 0,025 mm 0,0 UV-I 0 W/m 14,9 C 22,8 C 0,5 km/h (0 Bft)
02.07.2015 23:00 21,5 C 65 % 1022,1 hPa 0,0 l/m 0,2 km/h (0 Bft) N 0,00 h 0,051 mm 0,0 UV-I 0 W/m 14,5 C 21,5 C 1,5 km/h (1 Bft)
03.07.2015 00:00 20,6 C 65 % 1022,2 hPa 0,0 l/m 1,3 km/h (1 Bft) O-NO 0,00 h 0,025 mm 0,0 UV-I 0 W/m 13,8 C 20,6 C 5,3 km/h (1 Bft)
03.07.2015 01:00 20,3 C 63 % 1022,3 hPa 0,0 l/m 1,4 km/h (1 Bft) O-NO 0,00 h 0,025 mm 0,0 UV-I 0 W/m 13,0 C 20,3 C 4,9 km/h (1 Bft)
03.07.2015 02:00 18,4 C 71 % 1022,4 hPa 0,0 l/m 0,0 km/h (0 Bft) N 0,00 h 0,051 mm 0,0 UV-I 0 W/m 13,1 C 18,4 C 0,1 km/h (0 Bft)
03.07.2015 03:00 16,9 C 78 % 1022,4 hPa 0,0 l/m 0,0 km/h (0 Bft) N 0,00 h 0,025 mm 0,0 UV-I 0 W/m 13,1 C 16,9 C 0,0 km/h (0 Bft)
03.07.2015 04:00 15,8 C 84 % 1022,6 hPa 0,0 l/m 0,0 km/h (0 Bft) N 0,00 h 0,000 mm 0,0 UV-I 0 W/m 13,2 C 15,8 C 0,0 km/h (0 Bft)
03.07.2015 05:00 15,3 C 87 % 1022,9 hPa 0,0 l/m 0,0 km/h (0 Bft) N 0,00 h 0,000 mm 0,0 UV-I 11 W/m 13,2 C 15,3 C 0,0 km/h (0 Bft)
03.07.2015 06:00 16,1 C 88 % 1023,3 hPa 0,0 l/m 0,0 km/h (0 Bft) N 0,00 h 0,000 mm 0,0 UV-I 25 W/m 14,1 C 16,1 C 0,0 km/h (0 Bft)
03.07.2015 07:00 19,0 C 77 % 1023,5 hPa 0,0 l/m 0,0 km/h (0 Bft) N 0,52 h 0,025 mm 1,0 UV-I 180 W/m 14,9 C 19,0 C 0,1 km/h (0 Bft)
03.07.2015 08:00 23,1 C 63 % 1023,5 hPa 0,0 l/m 0,1 km/h (0 Bft) N 1,00 h 0,102 mm 1,7 UV-I 444 W/m 15,7 C 23,1 C 0,7 km/h (0 Bft)
03.07.2015 09:00 25,5 C 59 % 1023,5 hPa 0,0 l/m 0,4 km/h (0 Bft) N 1,00 h 0,279 mm 2,9 UV-I 589 W/m 16,9 C 25,5 C 1,1 km/h (1 Bft)
03.07.2015 10:00 27,5 C 55 % 1023,6 hPa 0,0 l/m 0,2 km/h (0 Bft) N 1,00 h 0,381 mm 4,0 UV-I 709 W/m 17,7 C 27,5 C 1,0 km/h (0 Bft)
03.07.2015 11:00 29,4 C 51 % 1023,7 hPa 0,0 l/m 0,6 km/h (0 Bft) N 1,00 h 0,457 mm 5,5 UV-I 797 W/m 18,1 C 29,4 C 2,2 km/h (1 Bft)
03.07.2015 12:00 29,9 C 47 % 1023,6 hPa 0,0 l/m 1,7 km/h (1 Bft) SO 1,00 h 0,533 mm 6,4 UV-I 847 W/m 17,2 C 29,9 C 4,5 km/h (1 Bft)
03.07.2015 13:00 30,7 C 44 % 1023,1 hPa 0,0 l/m 2,5 km/h (1 Bft) S-SO 1,00 h 0,584 mm 6,5 UV-I 852 W/m 17,0 C 30,7 C 5,5 km/h (2 Bft)
03.07.2015 14:00 31,7 C 42 % 1022,8 hPa 0,0 l/m 2,1 km/h (1 Bft) S-SO 1,00 h 0,610 mm 5,9 UV-I 824 W/m 17,2 C 31,6 C 4,9 km/h (1 Bft)
03.07.2015 15:00 31,1 C 42 % 1022,4 hPa 0,0 l/m 3,0 km/h (1 Bft) S 1,00 h 0,584 mm 4,2 UV-I 610 W/m 16,8 C 31,1 C 6,1 km/h (2 Bft)
03.07.2015 16:00 31,2 C 41 % 1022,0 hPa 0,0 l/m 2,9 km/h (1 Bft) SO 1,00 h 0,432 mm 3,1 UV-I 536 W/m 16,4 C 31,2 C 6,0 km/h (2 Bft)
03.07.2015 17:00 31,0 C 40 % 1021,6 hPa 0,0 l/m 2,9 km/h (1 Bft) S-SO 1,00 h 0,406 mm 1,8 UV-I 330 W/m 15,7 C 31,0 C 6,2 km/h (2 Bft)
03.07.2015 18:00 30,5 C 39 % 1021,2 hPa 0,0 l/m 1,3 km/h (1 Bft) N 1,00 h 0,254 mm 0,9 UV-I 85 W/m 14,9 C 30,5 C 3,3 km/h (1 Bft)
03.07.2015 19:00 30,0 C 43 % 1021,4 hPa 0,0 l/m 0,6 km/h (0 Bft) N 0,82 h 0,076 mm 0,6 UV-I 61 W/m 15,8 C 30,0 C 1,9 km/h (1 Bft)
03.07.2015 20:00 28,7 C 46 % 1021,8 hPa 0,0 l/m 0,2 km/h (0 Bft) N 0,00 h 0,051 mm 0,0 UV-I 23 W/m 16,1 C 28,7 C 0,9 km/h (0 Bft)
03.07.2015 21:00 26,0 C 56 % 1021,9 hPa 0,0 l/m 0,0 km/h (0 Bft) N 0,00 h 0,025 mm 0,0 UV-I 7 W/m 16,5 C 26,0 C 0,3 km/h (0 Bft)
03.07.2015 22:00 23,9 C 65 % 1022,0 hPa 0,0 l/m 0,0 km/h (0 Bft) N 0,00 h 0,025 mm 0,0 UV-I 0 W/m 17,0 C 23,9 C 0,1 km/h (0 Bft)
03.07.2015 23:00 22,5 C 70 % 1022,2 hPa 0,0 l/m 0,9 km/h (0 Bft) N 0,00 h 0,025 mm 0,0 UV-I 0 W/m 16,7 C 22,5 C 2,1 km/h (1 Bft)
04.07.2015 00:00 21,1 C 73 % 1022,2 hPa 0,0 l/m 0,2 km/h (0 Bft) N 0,00 h 0,025 mm 0,0 UV-I 0 W/m 16,0 C 21,1 C 0,9 km/h (0 Bft)
04.07.2015 01:00 20,3 C 75 % 1022,0 hPa 0,0 l/m 0,3 km/h (0 Bft) N 0,00 h 0,025 mm 0,0 UV-I 0 W/m 15,7 C 20,3 C 1,0 km/h (0 Bft)
04.07.2015 02:00 19,0 C 82 % 1021,9 hPa 0,0 l/m 0,0 km/h (0 Bft) N 0,00 h 0,025 mm 0,0 UV-I 0 W/m 15,9 C 19,0 C 0,0 km/h (0 Bft)
04.07.2015 03:00 17,8 C 87 % 1021,6 hPa 0,0 l/m 0,0 km/h (0 Bft) N 0,00 h 0,025 mm 0,0 UV-I 0 W/m 15,6 C 17,8 C 0,1 km/h (0 Bft)
04.07.2015 04:00 17,1 C 89 % 1021,6 hPa 0,0 l/m 0,0 km/h (0 Bft) N 0,00 h 0,000 mm 0,0 UV-I 0 W/m 15,2 C 17,1 C 0,0 km/h (0 Bft)
04.07.2015 05:00 16,6 C 91 % 1021,6 hPa 0,0 l/m 0,0 km/h (0 Bft) N 0,00 h 0,000 mm 0,0 UV-I 12 W/m 15,0 C 16,6 C 0,0 km/h (0 Bft)
04.07.2015 06:00 17,1 C 89 % 1021,6 hPa 0,0 l/m 0,0 km/h (0 Bft) N 0,00 h 0,000 mm 0,0 UV-I 32 W/m 15,2 C 17,1 C 0,1 km/h (0 Bft)
04.07.2015 07:00 19,6 C 80 % 1021,4 hPa 0,0 l/m 0,0 km/h (0 Bft) N 0,63 h 0,025 mm 0,9 UV-I 177 W/m 16,1 C 19,6 C 0,0 km/h (0 Bft)
04.07.2015 08:00 23,9 C 68 % 1021,2 hPa 0,0 l/m 0,0 km/h (0 Bft) N 1,00 h 0,102 mm 1,6 UV-I 423 W/m 17,7 C 23,9 C 0,1 km/h (0 Bft)
04.07.2015 09:00 26,8 C 59 % 1021,0 hPa 0,0 l/m 0,2 km/h (0 Bft) N 1,00 h 0,254 mm 2,7 UV-I 571 W/m 18,1 C 26,8 C 0,6 km/h (0 Bft)
04.07.2015 10:00 28,8 C 55 % 1020,7 hPa 0,0 l/m 0,4 km/h (0 Bft) N 1,00 h 0,381 mm 3,7 UV-I 693 W/m 18,8 C 28,8 C 1,5 km/h (1 Bft)
04.07.2015 11:00 30,6 C 50 % 1020,5 hPa 0,0 l/m 1,4 km/h (1 Bft) N 1,00 h 0,457 mm 5,1 UV-I 780 W/m 18,9 C 30,6 C 3,5 km/h (1 Bft)
04.07.2015 12:00 31,5 C 46 % 1020,1 hPa 0,0 l/m 3,1 km/h (1 Bft) SO 1,00 h 0,533 mm 5,9 UV-I 819 W/m 18,6 C 31,5 C 6,8 km/h (2 Bft)
04.07.2015 13:00 32,4 C 43 % 1019,7 hPa 0,0 l/m 4,7 km/h (1 Bft) S 1,00 h 0,584 mm 6,1 UV-I 829 W/m 18,3 C 32,4 C 8,7 km/h (2 Bft)
04.07.2015 14:00 32,9 C 40 % 1019,4 hPa 0,0 l/m 5,0 km/h (1 Bft) S 1,00 h 0,610 mm 5,6 UV-I 789 W/m 17,5 C 32,9 C 9,7 km/h (2 Bft)
04.07.2015 15:00 33,3 C 37 % 1019,0 hPa 0,0 l/m 3,0 km/h (1 Bft) S 1,00 h 0,610 mm 4,6 UV-I 719 W/m 16,7 C 33,3 C 6,7 km/h (2 Bft)
04.07.2015 16:00 33,5 C 34 % 1018,6 hPa 0,0 l/m 2,7 km/h (1 Bft) W-SW 1,00 h 0,533 mm 3,3 UV-I 604 W/m 15,6 C 33,5 C 5,3 km/h (1 Bft)
04.07.2015 17:00 33,1 C 33 % 1018,3 hPa 0,0 l/m 1,8 km/h (1 Bft) W-SW 1,00 h 0,457 mm 1,9 UV-I 368 W/m 14,4 C 33,1 C 3,9 km/h (1 Bft)
04.07.2015 18:00 32,3 C 33 % 1017,8 hPa 0,0 l/m 0,9 km/h (0 Bft) N 1,00 h 0,279 mm 0,9 UV-I 92 W/m 13,8 C 32,3 C 2,1 km/h (1 Bft)
04.07.2015 19:00 31,4 C 40 % 1017,6 hPa 0,0 l/m 0,5 km/h (0 Bft) N 0,92 h 0,102 mm 0,5 UV-I 63 W/m 16,3 C 31,4 C 1,8 km/h (1 Bft)
04.07.2015 20:00 30,0 C 45 % 1017,8 hPa 0,0 l/m 0,5 km/h (0 Bft) N 0,00 h 0,076 mm 0,0 UV-I 24 W/m 16,7 C 30,0 C 1,2 km/h (1 Bft)
04.07.2015 21:00 26,9 C 59 % 1017,8 hPa 0,0 l/m 0,2 km/h (0 Bft) N 0,00 h 0,025 mm 0,0 UV-I 5 W/m 18,3 C 26,9 C 1,2 km/h (1 Bft)
04.07.2015 22:00 24,5 C 67 % 1017,9 hPa 0,0 l/m 0,0 km/h (0 Bft) N 0,00 h 0,025 mm 0,0 UV-I 0 W/m 17,9 C 24,5 C 0,0 km/h (0 Bft)
04.07.2015 23:00 22,5 C 77 % 1017,7 hPa 0,0 l/m 0,0 km/h (0 Bft) N 0,00 h 0,025 mm 0,0 UV-I 0 W/m 18,2 C 22,5 C 0,1 km/h (0 Bft)
05.07.2015 00:00 21,4 C 80 % 1017,6 hPa 0,0 l/m 0,0 km/h (0 Bft) N 0,00 h 0,025 mm 0,0 UV-I 0 W/m 17,7 C 21,4 C 0,0 km/h (0 Bft)
05.07.2015 01:00 20,6 C 81 % 1017,8 hPa 0,0 l/m 0,0 km/h (0 Bft) N 0,00 h 0,025 mm 0,0 UV-I 0 W/m 17,1 C 20,6 C 0,0 km/h (0 Bft)
05.07.2015 02:00 20,3 C 81 % 1017,8 hPa 0,0 l/m 0,0 km/h (0 Bft) N 0,00 h 0,025 mm 0,0 UV-I 0 W/m 16,9 C 20,3 C 0,0 km/h (0 Bft)
05.07.2015 03:00 19,6 C 84 % 1017,5 hPa 0,0 l/m 0,0 km/h (0 Bft) N 0,00 h 0,025 mm 0,0 UV-I 0 W/m 16,9 C 19,6 C 0,0 km/h (0 Bft)
05.07.2015 04:00 19,0 C 86 % 1017,3 hPa 0,0 l/m 0,0 km/h (0 Bft) N 0,00 h 0,025 mm 0,0 UV-I 0 W/m 16,5 C 19,0 C 0,0 km/h (0 Bft)
05.07.2015 05:00 18,5 C 87 % 1017,3 hPa 0,0 l/m 0,0 km/h (0 Bft) N 0,00 h 0,025 mm 0,0 UV-I 15 W/m 16,4 C 18,5 C 0,0 km/h (0 Bft)
05.07.2015 06:00 18,8 C 87 % 1017,2 hPa 0,0 l/m 0,0 km/h (0 Bft) N 0,32 h 0,000 mm 0,5 UV-I 44 W/m 16,6 C 18,8 C 0,0 km/h (0 Bft)
05.07.2015 07:00 20,9 C 80 % 1017,1 hPa 0,0 l/m 0,0 km/h (0 Bft) N 1,00 h 0,025 mm 0,7 UV-I 143 W/m 17,3 C 20,9 C 0,0 km/h (0 Bft)
05.07.2015 08:00 24,5 C 69 % 1016,8 hPa 0,0 l/m 0,0 km/h (0 Bft) N 1,00 h 0,076 mm 1,4 UV-I 343 W/m 18,4 C 24,5 C 0,0 km/h (0 Bft)
05.07.2015 09:00 27,8 C 55 % 1016,7 hPa 0,0 l/m 3,2 km/h (1 Bft) W-SW 1,00 h 0,229 mm 2,7 UV-I 553 W/m 17,7 C 27,8 C 6,5 km/h (2 Bft)
05.07.2015 10:00 29,8 C 49 % 1016,4 hPa 0,0 l/m 3,4 km/h (1 Bft) S 1,00 h 0,381 mm 3,9 UV-I 685 W/m 17,8 C 29,8 C 6,9 km/h (2 Bft)
05.07.2015 11:00 31,4 C 44 % 1016,1 hPa 0,0 l/m 5,0 km/h (1 Bft) S 1,00 h 0,483 mm 5,3 UV-I 769 W/m 17,6 C 31,4 C 9,5 km/h (2 Bft)
05.07.2015 12:00 32,7 C 40 % 1015,8 hPa 0,0 l/m 6,4 km/h (2 Bft) SW 1,00 h 0,584 mm 6,1 UV-I 815 W/m 17,1 C 32,7 C 12,3 km/h (2 Bft)
05.07.2015 13:00 33,7 C 38 % 1015,1 hPa 0,0 l/m 4,9 km/h (1 Bft) W-SW 1,00 h 0,635 mm 6,3 UV-I 829 W/m 17,3 C 33,7 C 10,1 km/h (2 Bft)
05.07.2015 14:00 34,1 C 36 % 1014,3 hPa 0,0 l/m 6,6 km/h (2 Bft) S 1,00 h 0,635 mm 5,9 UV-I 806 W/m 16,9 C 34,1 C 12,9 km/h (3 Bft)
05.07.2015 15:00 34,2 C 33 % 1013,7 hPa 0,0 l/m 7,0 km/h (2 Bft) S 1,00 h 0,635 mm 4,8 UV-I 727 W/m 15,7 C 34,2 C 13,0 km/h (3 Bft)
05.07.2015 16:00 34,3 C 31 % 1013,3 hPa 0,0 l/m 5,9 km/h (2 Bft) S-SO 1,00 h 0,610 mm 3,4 UV-I 603 W/m 14,9 C 34,3 C 11,1 km/h (2 Bft)
05.07.2015 17:00 33,8 C 31 % 1012,9 hPa 0,0 l/m 3,9 km/h (1 Bft) S-SO 1,00 h 0,508 mm 2,0 UV-I 376 W/m 14,1 C 33,8 C 7,8 km/h (2 Bft)
05.07.2015 18:00 33,1 C 32 % 1012,5 hPa 0,0 l/m 5,2 km/h (1 Bft) S-SO 1,00 h 0,330 mm 0,9 UV-I 96 W/m 13,9 C 33,1 C 10,2 km/h (2 Bft)
05.07.2015 19:00 29,3 C 43 % 1012,3 hPa 0,0 l/m 5,2 km/h (1 Bft) SO 0,73 h 0,152 mm 0,5 UV-I 66 W/m 15,3 C 29,2 C 12,4 km/h (2 Bft)
05.07.2015 20:00 27,9 C 48 % 1011,8 hPa 0,0 l/m 2,3 km/h (1 Bft) SO 0,00 h 0,102 mm 0,0 UV-I 23 W/m 15,8 C 27,9 C 7,4 km/h (2 Bft)
05.07.2015 21:00 26,8 C 53 % 1011,5 hPa 0,0 l/m 0,9 km/h (0 Bft) N 0,00 h 0,051 mm 0,0 UV-I 6 W/m 16,5 C 26,8 C 3,0 km/h (1 Bft)
05.07.2015 22:00 25,8 C 57 % 1011,7 hPa 0,0 l/m 1,1 km/h (1 Bft) SO 0,00 h 0,025 mm 0,0 UV-I 0 W/m 16,7 C 25,8 C 3,8 km/h (1 Bft)
05.07.2015 23:00 24,8 C 61 % 1011,1 hPa 0,0 l/m 0,6 km/h (0 Bft) N 0,00 h 0,051 mm 0,0 UV-I 0 W/m 16,6 C 24,8 C 2,0 km/h (1 Bft)
Min-Datum _ 30.06.15 05.07.15 05.07.15 - 29.06.15 - - - - - 29.06.15 30.06.15 29.06.15
_ Min-Zeit 03:33 16:09 23:23 - 00:00 - - - - - 17:02 05:22 00:00
Minimum _ 0,0 C 28 % 1010,8 hPa - 0,0 km/h (0 Bft) - - - - - 9,9 C 11,6 C 0,0 km/h (0 Bft)
Max-Datum _ 05.07.15 30.06.15 03.07.15 29.06.15 29.06.15 - 03.07.15 05.07.15 30.06.15 29.06.15 04.07.15 05.07.15 05.07.15
_ Max-Zeit 14:32 02:44 10:49 07:35 20:20 - 08:27 13:00 12:38 11:13 11:11 16:08 19:19
Maximum _ 34,4 C 95 % 1023,8 hPa 0,6 l/m 16,1 km/h
N (3 Bft)
- 0,07 h 0,635 mm 7,0 UV-I 1055 W/m 21,5 C 34,4 C 25,7 km/h
O-SO (4 Bft)
Durchschnitt _ 23,0 C 62 % 1019,8 hPa #1,0 l/m 1,5 km/h (1 Bft) N #84:16 h #34,678 mm 3,5 UV-I 405 W/m 14,6 C 23,0 C 3,6 km/h (1 Bft)